createdAt,value
2022-09-06T00:00:44.245Z,41.73
2022-09-06T00:01:44.188Z,42.54
2022-09-06T00:02:44.255Z,41.25
2022-09-06T00:03:44.176Z,41.89
2022-09-06T00:04:44.174Z,41.41
2022-09-06T00:05:44.179Z,42.38
2022-09-06T00:06:44.128Z,44.15
2022-09-06T00:07:44.130Z,42.06
2022-09-06T00:08:44.103Z,42.86
2022-09-06T00:09:44.123Z,44.31
2022-09-06T00:10:44.085Z,47.05
2022-09-06T00:11:44.091Z,43.67
2022-09-06T00:12:44.095Z,41.09
2022-09-06T00:13:44.051Z,41.09
2022-09-06T00:14:44.054Z,42.06
2022-09-06T00:15:44.084Z,42.22
2022-09-06T00:16:44.049Z,42.86
2022-09-06T00:17:44.057Z,43.18
2022-09-06T00:18:44.002Z,43.02
2022-09-06T00:19:44.001Z,49.95
2022-09-06T00:20:43.977Z,43.83
2022-09-06T00:21:43.985Z,45.76
2022-09-06T00:22:43.961Z,55.43
2022-09-06T00:23:43.965Z,49.47
2022-09-06T00:24:43.950Z,53.17
2022-09-06T00:25:43.920Z,42.22
2022-09-06T00:26:43.942Z,48.18
2022-09-06T00:27:43.910Z,46.08
2022-09-06T00:28:43.896Z,46.25
2022-09-06T00:29:43.873Z,43.34
2022-09-06T00:30:43.935Z,42.22
2022-09-06T00:31:43.868Z,42.54
2022-09-06T00:32:44.072Z,40.93
2022-09-06T00:33:43.833Z,41.25
2022-09-06T00:34:43.825Z,55.91
2022-09-06T00:35:43.837Z,42.22
2022-09-06T00:36:43.819Z,42.38
2022-09-06T00:37:43.792Z,43.34
2022-09-06T00:38:43.803Z,54.79
2022-09-06T00:39:43.865Z,47.05
2022-09-06T00:40:43.796Z,42.54
2022-09-06T00:41:43.765Z,42.22
2022-09-06T00:42:43.744Z,42.70
2022-09-06T00:43:43.766Z,58.97
2022-09-06T00:44:43.722Z,48.02
2022-09-06T00:45:43.747Z,45.60
2022-09-06T00:46:43.812Z,43.51
2022-09-06T00:47:43.779Z,44.79
2022-09-06T00:48:43.728Z,41.25
2022-09-06T00:49:43.673Z,42.06
2022-09-06T00:50:43.668Z,54.95
2022-09-06T00:51:43.647Z,46.73
2022-09-06T00:52:43.638Z,41.25
2022-09-06T00:53:43.646Z,40.93
2022-09-06T00:54:43.623Z,45.60
2022-09-06T00:55:43.605Z,40.93
2022-09-06T00:56:43.599Z,44.31
2022-09-06T00:57:43.630Z,41.25
2022-09-06T00:58:43.596Z,48.18
2022-09-06T00:59:43.598Z,53.50
2022-09-06T01:00:43.551Z,41.73
2022-09-06T01:01:43.817Z,42.06
2022-09-06T01:02:43.721Z,43.18
2022-09-06T01:03:43.550Z,46.41
2022-09-06T01:04:43.514Z,52.21
2022-09-06T01:05:43.543Z,41.73
2022-09-06T01:06:43.507Z,41.73
2022-09-06T01:07:43.471Z,41.09
2022-09-06T01:08:43.499Z,43.51
2022-09-06T01:09:43.479Z,46.25
2022-09-06T01:10:43.447Z,42.06
2022-09-06T01:11:43.443Z,41.73
2022-09-06T01:12:43.424Z,45.12
2022-09-06T01:13:43.433Z,41.73
2022-09-06T01:14:43.443Z,44.31
2022-09-06T01:15:43.528Z,42.70
2022-09-06T01:16:43.399Z,45.12
2022-09-06T01:17:43.388Z,48.02
2022-09-06T01:18:43.399Z,45.92
2022-09-06T01:19:43.377Z,42.54
2022-09-06T01:20:43.341Z,43.83
2022-09-06T01:21:43.329Z,41.73
2022-09-06T01:22:43.347Z,43.83
2022-09-06T01:23:43.308Z,41.73
2022-09-06T01:24:43.324Z,42.06
2022-09-06T01:25:43.299Z,42.22
2022-09-06T01:26:43.315Z,43.02
2022-09-06T01:27:43.263Z,44.63
2022-09-06T01:28:43.294Z,46.57
2022-09-06T01:29:43.242Z,61.23
2022-09-06T01:30:43.337Z,48.50
2022-09-06T01:31:43.232Z,59.46
2022-09-06T01:32:43.230Z,49.47
2022-09-06T01:33:43.209Z,50.11
2022-09-06T01:34:43.231Z,59.14
2022-09-06T01:35:43.176Z,52.69
2022-09-06T01:37:06.201Z,61.07
2022-09-06T01:37:43.193Z,57.52
2022-09-06T01:38:43.172Z,58.97
2022-09-06T01:39:43.208Z,55.75
2022-09-06T01:40:43.152Z,61.55
2022-09-06T01:41:43.115Z,61.07
2022-09-06T01:42:43.129Z,54.62
2022-09-06T01:43:43.097Z,54.46
2022-09-06T01:44:43.100Z,57.69
2022-09-06T01:45:43.279Z,67.68
2022-09-06T01:46:43.077Z,57.69
2022-09-06T01:47:43.086Z,47.21
2022-09-06T01:48:43.042Z,50.60
2022-09-06T01:49:43.040Z,58.01
2022-09-06T01:50:43.036Z,56.88
2022-09-06T01:51:43.121Z,58.17
2022-09-06T01:52:43.031Z,57.69
2022-09-06T01:53:42.997Z,51.08
2022-09-06T01:54:42.992Z,52.21
2022-09-06T01:55:42.968Z,60.42
2022-09-06T01:56:42.988Z,59.46
2022-09-06T01:57:42.947Z,59.14
2022-09-06T01:58:42.942Z,55.91
2022-09-06T01:59:42.950Z,64.29
2022-09-06T02:00:42.932Z,56.88
2022-09-06T02:01:42.985Z,62.52
2022-09-06T02:02:42.990Z,55.59
2022-09-06T02:03:42.884Z,49.95
2022-09-06T02:04:42.929Z,57.69
2022-09-06T02:05:42.863Z,56.24
2022-09-06T02:06:42.859Z,58.65
2022-09-06T02:07:42.900Z,55.43
2022-09-06T02:08:42.841Z,59.78
2022-09-06T02:09:42.815Z,51.88
2022-09-06T02:10:42.810Z,53.17
2022-09-06T02:11:42.801Z,60.26
2022-09-06T02:12:42.823Z,60.42
2022-09-06T02:13:42.776Z,55.91
2022-09-06T02:14:42.765Z,54.30
2022-09-06T02:15:42.778Z,61.07
2022-09-06T02:16:42.802Z,56.24
2022-09-06T02:17:42.761Z,60.59
2022-09-06T02:18:42.746Z,61.55
2022-09-06T02:19:42.716Z,62.04
2022-09-06T02:20:42.705Z,59.94
2022-09-06T02:21:42.763Z,60.26
2022-09-06T02:22:42.718Z,54.62
2022-09-06T02:23:42.674Z,55.59
2022-09-06T02:24:42.662Z,63.49
2022-09-06T02:25:42.654Z,56.07
2022-09-06T02:26:42.643Z,53.01
2022-09-06T02:27:42.690Z,56.72
2022-09-06T02:28:42.626Z,53.66
2022-09-06T02:29:42.603Z,54.62
2022-09-06T02:30:42.641Z,60.59
2022-09-06T02:31:42.603Z,57.69
2022-09-06T02:32:42.617Z,49.95
2022-09-06T02:33:42.586Z,50.92
2022-09-06T02:34:42.575Z,53.01
2022-09-06T02:35:42.553Z,57.85
2022-09-06T02:36:42.645Z,54.14
2022-09-06T02:37:42.530Z,68.32
2022-09-06T02:38:42.549Z,58.81
2022-09-06T02:39:42.560Z,53.17
2022-09-06T02:40:42.496Z,66.23
2022-09-06T02:41:42.521Z,52.21
2022-09-06T02:42:42.481Z,52.85
2022-09-06T02:43:42.484Z,53.33
2022-09-06T02:44:42.522Z,48.98
2022-09-06T02:45:42.521Z,51.40
2022-09-06T02:46:42.431Z,49.47
2022-09-06T02:47:42.421Z,52.85
2022-09-06T02:48:42.414Z,55.59
2022-09-06T02:49:42.440Z,48.02
2022-09-06T02:50:42.397Z,55.59
2022-09-06T02:51:42.382Z,57.04
2022-09-06T02:52:42.382Z,54.62
2022-09-06T02:53:42.397Z,66.87
2022-09-06T02:54:42.378Z,56.24
2022-09-06T02:55:42.347Z,54.95
2022-09-06T02:56:42.380Z,57.04
2022-09-06T02:57:42.359Z,52.21
2022-09-06T02:58:42.315Z,48.82
2022-09-06T02:59:42.325Z,49.47
2022-09-06T03:00:42.285Z,46.41
2022-09-06T03:01:42.361Z,52.69
2022-09-06T03:02:42.369Z,56.56
2022-09-06T03:03:42.269Z,51.08
2022-09-06T03:04:42.265Z,48.02
2022-09-06T03:05:42.311Z,48.98
2022-09-06T03:06:42.261Z,63.16
2022-09-06T03:07:42.273Z,53.33
2022-09-06T03:08:42.222Z,55.27
2022-09-06T03:09:42.235Z,52.37
2022-09-06T03:10:42.186Z,55.43
2022-09-06T03:11:42.203Z,57.04
2022-09-06T03:12:42.170Z,57.52
2022-09-06T03:13:42.169Z,56.40
2022-09-06T03:14:42.167Z,57.20
2022-09-06T03:15:42.163Z,48.98
2022-09-06T03:16:42.201Z,50.92
2022-09-06T03:17:42.130Z,50.27
2022-09-06T03:18:42.112Z,55.27
2022-09-06T03:19:42.107Z,52.53
2022-09-06T03:20:42.089Z,49.47
2022-09-06T03:21:42.103Z,48.50
2022-09-06T03:22:42.103Z,49.95
2022-09-06T03:23:42.062Z,60.10
2022-09-06T03:24:42.060Z,55.11
2022-09-06T03:25:42.041Z,66.87
2022-09-06T03:26:42.050Z,59.30
2022-09-06T03:27:42.028Z,66.23
2022-09-06T03:28:42.008Z,63.00
2022-09-06T03:29:41.998Z,56.72
2022-09-06T03:30:42.061Z,48.82
2022-09-06T03:31:42.019Z,56.24
2022-09-06T03:32:41.977Z,50.92
2022-09-06T03:33:41.961Z,47.53
2022-09-06T03:34:41.953Z,49.31
2022-09-06T03:35:41.981Z,53.01
2022-09-06T03:36:41.952Z,51.88
2022-09-06T03:37:41.923Z,57.85
2022-09-06T03:38:41.908Z,58.97
2022-09-06T03:39:42.010Z,59.94
2022-09-06T03:40:41.888Z,58.97
2022-09-06T03:41:41.935Z,57.36
2022-09-06T03:42:41.904Z,60.59
2022-09-06T03:43:41.879Z,54.79
2022-09-06T03:44:41.877Z,51.40
2022-09-06T03:45:41.941Z,53.50
2022-09-06T03:46:41.828Z,66.06
2022-09-06T03:47:41.852Z,51.72
2022-09-06T03:48:41.811Z,56.72
2022-09-06T03:49:41.810Z,48.50
2022-09-06T03:50:41.790Z,47.37
2022-09-06T03:51:41.854Z,66.06
2022-09-06T03:52:41.770Z,70.25
2022-09-06T03:53:41.823Z,54.62
2022-09-06T03:54:41.770Z,57.04
2022-09-06T03:55:41.795Z,47.86
2022-09-06T03:56:41.738Z,54.30
2022-09-06T03:57:41.742Z,66.23
2022-09-06T03:58:41.713Z,47.70
2022-09-06T03:59:41.734Z,52.37
2022-09-06T04:00:41.695Z,56.24
2022-09-06T04:01:41.753Z,62.52
2022-09-06T04:02:41.777Z,49.47
2022-09-06T04:03:41.696Z,58.49
2022-09-06T04:04:41.670Z,59.46
2022-09-06T04:05:41.669Z,48.66
2022-09-06T04:06:41.633Z,66.87
2022-09-06T04:07:41.620Z,71.70
2022-09-06T04:08:41.666Z,58.49
2022-09-06T04:09:41.609Z,59.78
2022-09-06T04:10:41.609Z,54.46
2022-09-06T04:11:44.951Z,53.17
2022-09-06T04:12:41.588Z,63.65
2022-09-06T04:13:41.626Z,60.91
2022-09-06T04:14:41.556Z,57.52
2022-09-06T04:15:41.602Z,60.26
2022-09-06T04:16:41.583Z,60.91
2022-09-06T04:17:41.499Z,68.96
2022-09-06T04:18:41.519Z,59.78
2022-09-06T04:19:41.461Z,67.03
2022-09-06T04:20:41.495Z,69.61
2022-09-06T04:21:41.517Z,60.75
2022-09-06T04:22:41.486Z,51.24
2022-09-06T04:23:41.477Z,59.94
2022-09-06T04:24:41.490Z,68.48
2022-09-06T04:25:41.454Z,60.10
2022-09-06T04:26:41.415Z,55.27
2022-09-06T04:27:41.373Z,62.84
2022-09-06T04:28:41.378Z,55.75
2022-09-06T04:29:41.464Z,64.61
2022-09-06T04:30:41.420Z,52.21
2022-09-06T04:31:41.375Z,60.91
2022-09-06T04:32:41.393Z,67.19
2022-09-06T04:33:41.328Z,59.78
2022-09-06T04:34:41.372Z,69.29
2022-09-06T04:35:41.362Z,68.96
2022-09-06T04:36:43.607Z,71.87
2022-09-06T04:37:41.304Z,61.23
2022-09-06T04:38:41.258Z,59.14
2022-09-06T04:39:41.266Z,60.91
2022-09-06T04:40:41.276Z,56.40
2022-09-06T04:41:41.243Z,60.10
2022-09-06T04:42:41.208Z,72.03
2022-09-06T04:43:41.215Z,56.07
2022-09-06T04:44:41.235Z,59.94
2022-09-06T04:45:41.362Z,57.52
2022-09-06T04:46:41.194Z,60.59
2022-09-06T04:47:41.176Z,57.04
2022-09-06T04:48:41.161Z,64.29
2022-09-06T04:49:41.150Z,66.06
2022-09-06T04:50:41.169Z,62.36
2022-09-06T04:51:41.132Z,60.42
2022-09-06T04:52:41.113Z,69.93
2022-09-06T04:53:41.248Z,65.74
2022-09-06T04:54:41.100Z,58.17
2022-09-06T04:55:41.099Z,65.74
2022-09-06T04:56:41.089Z,52.85
2022-09-06T04:57:45.759Z,61.23
2022-09-06T04:58:41.062Z,61.71
2022-09-06T04:59:41.045Z,63.16
2022-09-06T05:00:41.093Z,58.17
2022-09-06T05:01:41.038Z,60.26
2022-09-06T05:02:41.070Z,68.32
2022-09-06T05:03:41.027Z,63.65
2022-09-06T05:04:41.005Z,58.17
2022-09-06T05:05:41.015Z,62.04
2022-09-06T05:06:40.983Z,70.58
2022-09-06T05:07:40.972Z,60.42
2022-09-06T05:08:40.973Z,65.90
2022-09-06T05:09:40.947Z,61.23
2022-09-06T05:10:40.932Z,67.03
2022-09-06T05:11:41.000Z,62.36
2022-09-06T05:12:44.179Z,60.42
2022-09-06T05:13:40.909Z,60.26
2022-09-06T05:14:40.916Z,68.32
2022-09-06T05:15:40.892Z,52.69
2022-09-06T05:16:41.005Z,58.97
2022-09-06T05:17:40.906Z,60.26
2022-09-06T05:18:40.862Z,59.46
2022-09-06T05:19:40.847Z,60.42
2022-09-06T05:20:40.866Z,54.62
2022-09-06T05:21:40.857Z,61.55
2022-09-06T05:22:40.833Z,58.65
2022-09-06T05:23:40.866Z,64.29
2022-09-06T05:24:40.832Z,62.68
2022-09-06T05:25:40.811Z,63.97
2022-09-06T05:26:40.803Z,69.29
2022-09-06T05:27:40.779Z,74.28
2022-09-06T05:28:40.898Z,75.57
2022-09-06T05:29:40.755Z,69.61
2022-09-06T05:30:40.733Z,68.00
2022-09-06T05:31:40.785Z,68.80
2022-09-06T05:32:40.757Z,65.26
2022-09-06T05:33:40.745Z,69.93
2022-09-06T05:34:40.716Z,67.19
2022-09-06T05:35:40.686Z,56.07
2022-09-06T05:36:40.719Z,60.59
2022-09-06T05:37:40.744Z,60.91
2022-09-06T05:38:40.657Z,66.06
2022-09-06T05:39:41.416Z,63.65
2022-09-06T05:40:40.635Z,68.80
2022-09-06T05:41:40.638Z,61.71
2022-09-06T05:42:40.644Z,63.33
2022-09-06T05:43:40.614Z,65.42
2022-09-06T05:44:40.614Z,60.42
2022-09-06T05:45:40.720Z,61.87
2022-09-06T05:46:40.590Z,60.42
2022-09-06T05:47:40.621Z,60.26
2022-09-06T05:48:40.553Z,64.29
2022-09-06T05:49:40.581Z,68.48
2022-09-06T05:50:40.555Z,75.25
2022-09-06T05:51:40.540Z,62.68
2022-09-06T05:52:40.523Z,65.42
2022-09-06T05:53:40.621Z,69.61
2022-09-06T05:54:40.525Z,69.77
2022-09-06T05:55:43.028Z,70.74
2022-09-06T05:56:40.482Z,65.90
2022-09-06T05:57:40.566Z,84.76
2022-09-06T05:58:40.464Z,69.61
2022-09-06T05:59:40.494Z,60.42
2022-09-06T06:00:40.456Z,54.79
2022-09-06T06:01:40.523Z,61.07
2022-09-06T06:02:40.517Z,61.23
2022-09-06T06:03:40.429Z,58.49
2022-09-06T06:04:40.460Z,62.04
2022-09-06T06:05:40.408Z,62.36
2022-09-06T06:06:40.377Z,58.01
2022-09-06T06:07:40.378Z,74.44
2022-09-06T06:08:40.425Z,63.65
2022-09-06T06:09:40.362Z,65.90
2022-09-06T06:10:40.365Z,73.80
2022-09-06T06:11:40.368Z,70.74
2022-09-06T06:12:40.398Z,61.23
2022-09-06T06:13:40.308Z,62.84
2022-09-06T06:14:40.365Z,61.71
2022-09-06T06:15:40.292Z,63.81
2022-09-06T06:16:40.351Z,67.19
2022-09-06T06:17:40.287Z,58.97
2022-09-06T06:18:40.267Z,67.84
2022-09-06T06:19:40.295Z,68.32
2022-09-06T06:20:40.237Z,63.65
2022-09-06T06:21:40.244Z,66.06
2022-09-06T06:22:40.232Z,68.32
2022-09-06T06:23:40.217Z,70.25
2022-09-06T06:24:40.234Z,72.03
2022-09-06T06:25:40.194Z,58.33
2022-09-06T06:26:40.311Z,60.75
2022-09-06T06:27:40.314Z,67.03
2022-09-06T06:28:40.162Z,59.30
2022-09-06T06:29:40.178Z,59.78
2022-09-06T06:30:40.194Z,60.91
2022-09-06T06:31:40.212Z,65.58
2022-09-06T06:32:40.194Z,62.68
2022-09-06T06:33:40.116Z,74.93
2022-09-06T06:34:40.116Z,63.00
2022-09-06T06:35:40.310Z,62.68
2022-09-06T06:36:40.096Z,68.00
2022-09-06T06:37:40.077Z,67.03
2022-09-06T06:38:40.160Z,66.55
2022-09-06T06:39:40.160Z,56.72
2022-09-06T06:40:40.033Z,58.65
2022-09-06T06:41:40.048Z,57.69
2022-09-06T06:42:40.077Z,67.35
2022-09-06T06:43:40.045Z,65.26
2022-09-06T06:44:40.072Z,60.26
2022-09-06T06:45:40.079Z,58.97
2022-09-06T06:46:40.032Z,60.91
2022-09-06T06:47:40.129Z,63.00
2022-09-06T06:48:39.970Z,63.00
2022-09-06T06:49:40.029Z,62.68
2022-09-06T06:50:40.886Z,61.87
2022-09-06T06:51:40.920Z,65.42
2022-09-06T06:52:39.918Z,61.55
2022-09-06T06:53:40.005Z,65.10
2022-09-06T06:54:39.959Z,60.59
2022-09-06T06:55:39.897Z,70.90
2022-09-06T06:56:39.916Z,62.36
2022-09-06T06:57:40.266Z,63.49
2022-09-06T06:58:39.890Z,67.35
2022-09-06T06:59:42.109Z,59.94
2022-09-06T07:00:40.168Z,55.91
2022-09-06T07:01:40.235Z,63.49
2022-09-06T07:02:39.897Z,57.36
2022-09-06T07:03:39.811Z,64.61
2022-09-06T07:04:39.782Z,72.67
2022-09-06T07:07:41.131Z,55.75
2022-09-06T07:08:39.753Z,63.16
2022-09-06T07:10:39.736Z,59.62
2022-09-06T07:11:39.714Z,68.96
2022-09-06T07:12:39.703Z,58.01
2022-09-06T07:13:39.709Z,58.81
2022-09-06T07:14:39.706Z,60.59
2022-09-06T07:15:39.701Z,63.65
2022-09-06T07:16:39.751Z,59.46
2022-09-06T07:17:39.654Z,69.77
2022-09-06T07:18:39.686Z,69.13
2022-09-06T07:21:39.731Z,65.10
2022-09-06T07:22:39.629Z,64.13
2022-09-06T07:24:39.645Z,69.93
2022-09-06T07:25:39.703Z,69.61
2022-09-06T07:26:40.272Z,63.97
2022-09-06T07:27:47.304Z,66.39
2022-09-06T07:28:39.556Z,64.94
2022-09-06T07:29:39.532Z,59.30
2022-09-06T07:30:39.534Z,58.49
2022-09-06T07:32:39.531Z,66.06
2022-09-06T07:33:39.491Z,61.39
2022-09-06T07:34:39.497Z,67.35
2022-09-06T07:35:39.482Z,58.49
2022-09-06T07:36:39.528Z,64.13
2022-09-06T07:37:39.462Z,62.84
2022-09-06T07:38:39.462Z,59.62
2022-09-06T07:39:39.455Z,62.04
2022-09-06T07:40:39.462Z,55.75
2022-09-06T07:41:39.426Z,62.68
2022-09-06T07:42:39.402Z,68.16
2022-09-06T07:43:39.550Z,68.48
2022-09-06T07:44:39.411Z,58.97
2022-09-06T07:45:39.523Z,61.55
2022-09-06T07:46:39.479Z,60.10
2022-09-06T07:48:39.378Z,53.66
2022-09-06T07:49:39.517Z,63.00
2022-09-06T07:50:47.401Z,66.71
2022-09-06T07:51:39.310Z,57.36
2022-09-06T07:53:39.393Z,59.30
2022-09-06T07:54:39.298Z,60.91
2022-09-06T07:55:39.320Z,64.78
2022-09-06T07:56:39.258Z,58.65
2022-09-06T07:57:39.270Z,61.71
2022-09-06T07:58:39.296Z,66.23
2022-09-06T07:59:42.871Z,65.74
2022-09-06T08:00:39.230Z,61.39
2022-09-06T08:01:39.326Z,65.74
2022-09-06T08:02:39.197Z,61.55
2022-09-06T08:03:39.177Z,57.20
2022-09-06T08:04:39.275Z,60.59
2022-09-06T08:07:39.414Z,59.62
2022-09-06T08:09:39.115Z,66.71
2022-09-06T08:10:39.108Z,65.10
2022-09-06T08:11:39.127Z,60.42
2022-09-06T08:12:39.085Z,60.26
2022-09-06T08:13:39.066Z,61.71
2022-09-06T08:14:39.099Z,58.81
2022-09-06T08:15:41.608Z,59.30
2022-09-06T08:16:39.122Z,74.93
2022-09-06T08:17:39.082Z,62.52
2022-09-06T08:18:39.212Z,67.51
2022-09-06T08:19:39.063Z,67.84
2022-09-06T08:20:39.083Z,60.26
2022-09-06T08:21:39.025Z,61.55
2022-09-06T08:22:39.130Z,56.88
2022-09-06T08:23:38.969Z,63.97
2022-09-06T08:24:38.981Z,60.75
2022-09-06T08:25:38.946Z,67.84
2022-09-06T08:26:38.965Z,53.98
2022-09-06T08:27:38.971Z,55.43
2022-09-06T08:28:38.941Z,62.68
2022-09-06T08:29:39.441Z,66.55
2022-09-06T08:30:39.067Z,60.26
2022-09-06T08:31:39.659Z,58.33
2022-09-06T08:32:39.138Z,58.65
2022-09-06T08:33:40.625Z,60.91
2022-09-06T08:34:39.359Z,60.91
2022-09-06T08:35:38.912Z,61.39
2022-09-06T08:36:38.855Z,65.26
2022-09-06T08:37:38.828Z,63.97
2022-09-06T08:38:38.826Z,53.82
2022-09-06T08:39:38.839Z,60.75
2022-09-06T08:40:38.805Z,60.10
2022-09-06T08:41:38.838Z,54.79
2022-09-06T08:42:38.789Z,59.46
2022-09-06T08:43:38.784Z,59.94
2022-09-06T08:45:38.758Z,59.46
2022-09-06T08:46:38.812Z,67.84
2022-09-06T08:47:38.729Z,61.39
2022-09-06T08:48:38.727Z,60.10
2022-09-06T08:49:38.709Z,63.97
2022-09-06T08:50:38.705Z,57.69
2022-09-06T08:51:38.741Z,61.71
2022-09-06T08:52:45.302Z,58.65
2022-09-06T08:53:38.677Z,58.33
2022-09-06T08:54:38.762Z,52.53
2022-09-06T08:55:38.665Z,63.65
2022-09-06T08:56:38.677Z,58.49
2022-09-06T08:57:40.444Z,59.46
2022-09-06T08:58:38.674Z,58.33
2022-09-06T08:59:38.601Z,58.33
2022-09-06T09:00:38.715Z,57.36
2022-09-06T09:01:38.659Z,65.90
2022-09-06T09:02:38.576Z,60.75
2022-09-06T09:03:38.645Z,59.14
2022-09-06T09:04:38.553Z,68.32
2022-09-06T09:05:38.584Z,60.91
2022-09-06T09:06:38.536Z,58.97
2022-09-06T09:07:38.560Z,57.04
2022-09-06T09:08:38.540Z,54.79
2022-09-06T09:09:38.543Z,68.32
2022-09-06T09:10:38.513Z,60.10
2022-09-06T09:11:38.480Z,56.88
2022-09-06T09:12:38.475Z,59.30
2022-09-06T09:13:38.481Z,61.87
2022-09-06T09:14:38.452Z,64.29
2022-09-06T09:15:40.588Z,65.74
2022-09-06T09:16:38.491Z,72.03
2022-09-06T09:17:38.421Z,64.29
2022-09-06T09:18:38.441Z,64.45
2022-09-06T09:19:38.415Z,68.80
2022-09-06T09:20:38.385Z,70.25
2022-09-06T09:21:38.429Z,64.94
2022-09-06T09:22:38.371Z,64.78
2022-09-06T09:23:38.355Z,70.74
2022-09-06T09:24:38.379Z,58.65
2022-09-06T09:25:38.355Z,64.13
2022-09-06T09:26:38.331Z,65.74
2022-09-06T09:27:38.316Z,60.91
2022-09-06T09:28:38.311Z,60.59
2022-09-06T09:29:38.386Z,63.00
2022-09-06T09:30:53.812Z,63.16
2022-09-06T09:31:38.351Z,76.38
2022-09-06T09:32:38.269Z,69.77
2022-09-06T09:33:38.310Z,67.19
2022-09-06T09:34:38.269Z,65.42
2022-09-06T09:35:38.237Z,59.78
2022-09-06T09:36:38.516Z,59.46
2022-09-06T09:38:38.222Z,59.78
2022-09-06T09:39:38.411Z,59.46
2022-09-06T09:40:38.227Z,65.74
2022-09-06T09:41:38.232Z,60.91
2022-09-06T09:42:38.192Z,68.16
2022-09-06T09:43:38.172Z,64.61
2022-09-06T09:44:38.167Z,60.91
2022-09-06T09:45:38.148Z,62.36
2022-09-06T09:46:38.244Z,65.74
2022-09-06T09:47:38.136Z,60.75
2022-09-06T09:48:38.105Z,66.71
2022-09-06T09:49:39.903Z,69.45
2022-09-06T09:50:38.116Z,72.03
2022-09-06T09:51:39.482Z,66.87
2022-09-06T09:52:38.157Z,69.77
2022-09-06T09:53:38.061Z,64.61
2022-09-06T09:54:38.042Z,61.87
2022-09-06T09:55:38.030Z,65.26
2022-09-06T09:56:38.054Z,59.62
2022-09-06T09:57:38.022Z,63.65
2022-09-06T09:58:38.032Z,61.71
2022-09-06T09:59:37.999Z,53.66
2022-09-06T10:00:38.061Z,66.71
2022-09-06T10:01:37.978Z,60.91
2022-09-06T10:02:37.993Z,65.42
2022-09-06T10:04:45.023Z,61.39
2022-09-06T10:05:37.925Z,52.05
2022-09-06T10:07:37.944Z,57.20
2022-09-06T10:08:37.930Z,67.03
2022-09-06T10:09:37.923Z,68.32
2022-09-06T10:10:39.210Z,63.49
2022-09-06T10:11:37.871Z,68.48
2022-09-06T10:12:37.882Z,57.04
2022-09-06T10:13:37.871Z,59.62
2022-09-06T10:14:37.837Z,62.52
2022-09-06T10:15:37.832Z,66.23
2022-09-06T10:16:37.839Z,60.26
2022-09-06T10:17:37.835Z,64.29
2022-09-06T10:18:37.832Z,61.55
2022-09-06T10:19:37.780Z,66.71
2022-09-06T10:20:37.790Z,60.91
2022-09-06T10:21:37.771Z,68.96
2022-09-06T10:22:37.762Z,61.23
2022-09-06T10:24:37.862Z,58.81
2022-09-06T10:25:37.819Z,63.16
2022-09-06T10:26:37.750Z,58.01
2022-09-06T10:27:42.516Z,57.04
2022-09-06T10:28:37.761Z,56.24
2022-09-06T10:29:37.686Z,58.97
2022-09-06T10:30:37.688Z,58.97
2022-09-06T10:31:37.715Z,75.89
2022-09-06T10:32:37.703Z,55.91
2022-09-06T10:33:37.729Z,57.52
2022-09-06T10:34:37.654Z,62.52
2022-09-06T10:35:37.639Z,71.38
2022-09-06T10:36:37.623Z,61.07
2022-09-06T10:37:37.609Z,61.39
2022-09-06T10:38:37.632Z,60.42
2022-09-06T10:39:37.670Z,62.04
2022-09-06T10:40:37.593Z,59.30
2022-09-06T10:41:37.591Z,59.94
2022-09-06T10:42:37.566Z,60.75
2022-09-06T10:43:37.536Z,65.90
2022-09-06T10:44:37.551Z,61.07
2022-09-06T10:45:37.535Z,58.81
2022-09-06T10:46:37.563Z,59.78
2022-09-06T10:47:37.493Z,60.26
2022-09-06T10:48:37.561Z,55.91
2022-09-06T10:49:37.516Z,59.46
2022-09-06T10:50:37.489Z,55.43
2022-09-06T10:51:37.500Z,68.32
2022-09-06T10:52:37.455Z,63.97
2022-09-06T10:53:37.460Z,57.85
2022-09-06T10:54:37.452Z,53.66
2022-09-06T10:55:37.426Z,63.16
2022-09-06T10:56:37.467Z,60.91
2022-09-06T10:59:38.438Z,57.36
2022-09-06T11:00:37.486Z,60.91
2022-09-06T11:01:37.530Z,60.42
2022-09-06T11:02:37.521Z,65.58
2022-09-06T11:05:40.100Z,56.07
2022-09-06T11:06:37.354Z,59.46
2022-09-06T11:07:38.174Z,64.78
2022-09-06T11:08:53.419Z,58.65
2022-09-06T11:09:37.318Z,62.04
2022-09-06T11:10:37.354Z,60.91
2022-09-06T11:11:37.333Z,57.04
2022-09-06T11:12:37.261Z,59.46
2022-09-06T11:13:37.288Z,62.68
2022-09-06T11:14:37.253Z,60.26
2022-09-06T11:15:37.362Z,61.23
2022-09-06T11:16:37.218Z,60.10
2022-09-06T11:17:37.209Z,63.65
2022-09-06T11:18:37.270Z,67.03
2022-09-06T11:19:37.294Z,64.94
2022-09-06T11:20:37.225Z,62.84
2022-09-06T11:21:37.169Z,63.49
2022-09-06T11:22:37.183Z,65.26
2022-09-06T11:23:37.153Z,59.14
2022-09-06T11:24:37.137Z,65.58
2022-09-06T11:25:37.132Z,62.68
2022-09-06T11:26:37.122Z,60.26
2022-09-06T11:27:37.143Z,55.75
2022-09-06T11:28:37.117Z,60.59
2022-09-06T11:29:37.093Z,59.78
2022-09-06T11:30:37.123Z,54.95
2022-09-06T11:32:37.085Z,53.66
2022-09-06T11:33:37.081Z,66.87
2022-09-06T11:34:37.054Z,58.33
2022-09-06T11:35:37.064Z,65.58
2022-09-06T11:36:37.069Z,64.61
2022-09-06T11:37:37.014Z,59.62
2022-09-06T11:38:37.025Z,78.96
2022-09-06T11:40:37.006Z,67.19
2022-09-06T11:41:37.002Z,60.59
2022-09-06T11:42:36.986Z,63.81
2022-09-06T11:43:36.998Z,65.74
2022-09-06T11:44:36.977Z,64.45
2022-09-06T11:45:37.189Z,68.48
2022-09-06T11:46:36.977Z,71.38
2022-09-06T11:47:36.968Z,63.97
2022-09-06T11:48:36.933Z,63.65
2022-09-06T11:49:36.932Z,66.06
2022-09-06T11:50:36.899Z,65.58
2022-09-06T11:51:36.926Z,63.33
2022-09-06T11:52:36.893Z,64.61
2022-09-06T11:53:36.910Z,67.84
2022-09-06T11:54:36.885Z,65.90
2022-09-06T11:55:36.842Z,61.55
2022-09-06T11:56:36.849Z,54.14
2022-09-06T11:57:36.843Z,63.97
2022-09-06T11:58:36.837Z,61.71
2022-09-06T11:59:36.815Z,55.43
2022-09-06T12:00:36.818Z,64.45
2022-09-06T12:01:36.953Z,58.97
2022-09-06T12:02:36.941Z,69.45
2022-09-06T12:04:36.793Z,60.59
2022-09-06T12:05:36.770Z,66.23
2022-09-06T12:06:36.735Z,58.81
2022-09-06T12:07:36.797Z,59.46
2022-09-06T12:08:36.718Z,65.26
2022-09-06T12:09:36.711Z,62.36
2022-09-06T12:10:36.752Z,57.85
2022-09-06T12:11:36.902Z,55.91
2022-09-06T12:12:37.404Z,57.52
2022-09-06T12:13:36.692Z,65.26
2022-09-06T12:14:36.703Z,61.07
2022-09-06T12:15:36.761Z,58.65
2022-09-06T12:16:36.642Z,65.42
2022-09-06T12:17:36.636Z,61.23
2022-09-06T12:18:36.649Z,64.45
2022-09-06T12:19:38.950Z,60.75
2022-09-06T12:20:36.608Z,57.52
2022-09-06T12:21:36.623Z,61.23
2022-09-06T12:22:36.574Z,63.16
2022-09-06T12:23:36.571Z,53.98
2022-09-06T12:24:36.567Z,58.17
2022-09-06T12:25:36.581Z,64.61
2022-09-06T12:26:36.574Z,62.36
2022-09-06T12:27:36.543Z,54.46
2022-09-06T12:28:36.577Z,61.55
2022-09-06T12:29:36.525Z,57.04
2022-09-06T12:30:36.538Z,52.69
2022-09-06T12:31:36.626Z,57.36
2022-09-06T12:32:37.345Z,60.10
2022-09-06T12:33:36.522Z,59.94
2022-09-06T12:34:36.473Z,65.42
2022-09-06T12:36:36.466Z,61.55
2022-09-06T12:37:36.439Z,64.29
2022-09-06T12:38:36.437Z,59.94
2022-09-06T12:39:36.492Z,61.87
2022-09-06T12:40:36.412Z,62.68
2022-09-06T12:41:38.402Z,58.65
2022-09-06T12:42:36.408Z,63.97
2022-09-06T12:43:36.552Z,57.85
2022-09-06T12:44:36.416Z,68.32
2022-09-06T12:45:36.348Z,58.81
2022-09-06T12:46:36.361Z,58.81
2022-09-06T12:47:36.340Z,73.15
2022-09-06T12:48:36.308Z,62.36
2022-09-06T12:49:36.350Z,63.16
2022-09-06T12:50:36.310Z,64.13
2022-09-06T12:51:36.305Z,65.10
2022-09-06T12:52:36.284Z,65.74
2022-09-06T12:53:36.272Z,65.58
2022-09-06T12:54:36.258Z,63.65
2022-09-06T12:55:36.240Z,59.62
2022-09-06T12:56:36.250Z,66.06
2022-09-06T12:57:36.292Z,62.04
2022-09-06T12:58:36.210Z,63.00
2022-09-06T12:59:36.196Z,62.84
2022-09-06T13:00:36.178Z,56.88
2022-09-06T13:01:36.359Z,58.49
2022-09-06T13:02:36.318Z,67.03
2022-09-06T13:03:36.241Z,65.26
2022-09-06T13:04:36.147Z,63.33
2022-09-06T13:05:36.206Z,65.58
2022-09-06T13:06:36.137Z,65.26
2022-09-06T13:07:36.132Z,62.20
2022-09-06T13:08:36.095Z,60.42
2022-09-06T13:09:36.108Z,68.32
2022-09-06T13:10:36.107Z,64.78
2022-09-06T13:11:36.097Z,57.85
2022-09-06T13:12:36.052Z,63.97
2022-09-06T13:13:36.126Z,66.06
2022-09-06T13:14:36.413Z,67.84
2022-09-06T13:15:36.122Z,64.13
2022-09-06T13:16:36.016Z,68.32
2022-09-06T13:17:36.027Z,72.03